Weather at Łódź Władysław Reymont Airport

Public forecast

Using degrees Celsius for public forecast. Weather courtesy of forecast.io.

Current aviation weather report (METAR) for Łódź Władysław Reymont Airport

2024/05/19 14:30 (retrieved 15 minutes ago)

EPLL 191430Z 05012KT 010V070 9999 FEW024 20/14 Q1011

Aviation forecast (TAF) for Łódź Władysław Reymont Airport

2024/05/19 12:00 Correction (retrieved 3 hours ago)

TAF COR EPLL 191134Z 1912/2012 VRB05KT CAVOK TEMPO 1912/1923 -SHRA BKN040CB PROB40 TEMPO 1912/1917 VRB15G25KT 2000 TSRAGR TEMPO 2000/2005 2000 BR PROB40 2000/2004 0800 FG TEMPO 2008/2012 -SHRA SCT030CB